sensor_id;sensor_type;location;lat;lon;timestamp;P1;durP1;ratioP1;P2;durP2;ratioP2
18190;SDS011;47004;51.366;12.348;2023-10-09T00:01:40;4.37;;;2.80;;
18190;SDS011;47004;51.366;12.348;2023-10-09T00:03:44;4.90;;;2.60;;
18190;SDS011;47004;51.366;12.348;2023-10-09T00:05:53;3.93;;;2.47;;
18190;SDS011;47004;51.366;12.348;2023-10-09T00:07:55;4.80;;;2.73;;
18190;SDS011;47004;51.366;12.348;2023-10-09T00:09:57;4.90;;;2.90;;
18190;SDS011;47004;51.366;12.348;2023-10-09T00:12:00;4.63;;;2.73;;
18190;SDS011;47004;51.366;12.348;2023-10-09T00:14:10;4.50;;;2.60;;
18190;SDS011;47004;51.366;12.348;2023-10-09T00:16:12;6.10;;;2.70;;
18190;SDS011;47004;51.366;12.348;2023-10-09T00:18:14;4.67;;;2.43;;
18190;SDS011;47004;51.366;12.348;2023-10-09T00:20:22;4.90;;;3.00;;
18190;SDS011;47004;51.366;12.348;2023-10-09T00:22:39;5.37;;;3.00;;
18190;SDS011;47004;51.366;12.348;2023-10-09T00:24:43;4.67;;;2.57;;
18190;SDS011;47004;51.366;12.348;2023-10-09T00:26:50;8.17;;;3.30;;
18190;SDS011;47004;51.366;12.348;2023-10-09T00:28:55;6.73;;;2.60;;
18190;SDS011;47004;51.366;12.348;2023-10-09T00:30:57;3.83;;;2.90;;
18190;SDS011;47004;51.366;12.348;2023-10-09T00:33:03;5.97;;;3.03;;
18190;SDS011;47004;51.366;12.348;2023-10-09T00:35:07;5.87;;;2.87;;
18190;SDS011;47004;51.366;12.348;2023-10-09T00:37:26;3.83;;;2.40;;
18190;SDS011;47004;51.366;12.348;2023-10-09T00:39:35;4.93;;;2.60;;
18190;SDS011;47004;51.366;12.348;2023-10-09T00:41:43;4.53;;;2.67;;
18190;SDS011;47004;51.366;12.348;2023-10-09T00:43:45;4.50;;;2.63;;
18190;SDS011;47004;51.366;12.348;2023-10-09T00:45:49;3.87;;;2.40;;
18190;SDS011;47004;51.366;12.348;2023-10-09T00:47:51;3.60;;;2.37;;
18190;SDS011;47004;51.366;12.348;2023-10-09T00:49:57;4.40;;;2.50;;
18190;SDS011;47004;51.366;12.348;2023-10-09T00:52:01;5.10;;;2.67;;
18190;SDS011;47004;51.366;12.348;2023-10-09T00:54:02;4.20;;;2.60;;
18190;SDS011;47004;51.366;12.348;2023-10-09T00:56:15;6.37;;;2.87;;
18190;SDS011;47004;51.366;12.348;2023-10-09T00:58:29;5.47;;;2.80;;
18190;SDS011;47004;51.366;12.348;2023-10-09T01:00:36;2.87;;;2.40;;
18190;SDS011;47004;51.366;12.348;2023-10-09T01:02:46;5.03;;;2.50;;
18190;SDS011;47004;51.366;12.348;2023-10-09T01:05:08;4.43;;;2.33;;
18190;SDS011;47004;51.366;12.348;2023-10-09T01:07:19;3.43;;;2.60;;
18190;SDS011;47004;51.366;12.348;2023-10-09T01:09:28;4.70;;;2.50;;
18190;SDS011;47004;51.366;12.348;2023-10-09T01:11:37;5.00;;;2.30;;
18190;SDS011;47004;51.366;12.348;2023-10-09T01:13:49;4.03;;;2.60;;
18190;SDS011;47004;51.366;12.348;2023-10-09T01:15:59;5.10;;;3.10;;
18190;SDS011;47004;51.366;12.348;2023-10-09T01:18:06;4.53;;;2.63;;
18190;SDS011;47004;51.366;12.348;2023-10-09T01:20:09;5.57;;;2.80;;
18190;SDS011;47004;51.366;12.348;2023-10-09T01:22:17;4.63;;;2.80;;
18190;SDS011;47004;51.366;12.348;2023-10-09T01:24:23;5.33;;;3.07;;
18190;SDS011;47004;51.366;12.348;2023-10-09T01:26:27;6.77;;;3.20;;
18190;SDS011;47004;51.366;12.348;2023-10-09T01:28:32;4.63;;;2.70;;
18190;SDS011;47004;51.366;12.348;2023-10-09T01:30:34;5.87;;;2.80;;
18190;SDS011;47004;51.366;12.348;2023-10-09T01:32:41;5.37;;;2.80;;
18190;SDS011;47004;51.366;12.348;2023-10-09T01:34:45;5.73;;;3.30;;
18190;SDS011;47004;51.366;12.348;2023-10-09T01:36:50;5.03;;;2.90;;
18190;SDS011;47004;51.366;12.348;2023-10-09T01:38:54;5.93;;;2.90;;
18190;SDS011;47004;51.366;12.348;2023-10-09T01:40:58;5.20;;;2.73;;
18190;SDS011;47004;51.366;12.348;2023-10-09T01:43:07;8.17;;;3.20;;
18190;SDS011;47004;51.366;12.348;2023-10-09T01:45:10;6.23;;;3.00;;
18190;SDS011;47004;51.366;12.348;2023-10-09T01:47:12;4.80;;;3.40;;
18190;SDS011;47004;51.366;12.348;2023-10-09T01:49:18;3.70;;;2.57;;
18190;SDS011;47004;51.366;12.348;2023-10-09T01:51:21;4.83;;;2.67;;
18190;SDS011;47004;51.366;12.348;2023-10-09T01:53:23;4.23;;;2.43;;
18190;SDS011;47004;51.366;12.348;2023-10-09T01:55:30;3.87;;;2.50;;
18190;SDS011;47004;51.366;12.348;2023-10-09T01:57:37;4.97;;;2.80;;
18190;SDS011;47004;51.366;12.348;2023-10-09T01:59:40;4.33;;;2.87;;
18190;SDS011;47004;51.366;12.348;2023-10-09T02:01:44;4.50;;;2.67;;
18190;SDS011;47004;51.366;12.348;2023-10-09T02:03:48;4.43;;;2.90;;
18190;SDS011;47004;51.366;12.348;2023-10-09T02:05:52;4.73;;;2.60;;
18190;SDS011;47004;51.366;12.348;2023-10-09T02:07:59;4.30;;;2.60;;
18190;SDS011;47004;51.366;12.348;2023-10-09T02:10:02;4.80;;;2.80;;
18190;SDS011;47004;51.366;12.348;2023-10-09T02:12:05;4.07;;;2.53;;
18190;SDS011;47004;51.366;12.348;2023-10-09T02:14:09;4.83;;;2.60;;
18190;SDS011;47004;51.366;12.348;2023-10-09T02:16:19;5.00;;;2.90;;
18190;SDS011;47004;51.366;12.348;2023-10-09T02:18:28;5.30;;;2.97;;
18190;SDS011;47004;51.366;12.348;2023-10-09T02:20:53;5.17;;;2.47;;
18190;SDS011;47004;51.366;12.348;2023-10-09T02:23:13;5.13;;;2.60;;
18190;SDS011;47004;51.366;12.348;2023-10-09T02:25:17;4.40;;;2.60;;
18190;SDS011;47004;51.366;12.348;2023-10-09T02:27:22;5.83;;;3.03;;
18190;SDS011;47004;51.366;12.348;2023-10-09T02:29:45;4.30;;;2.83;;
18190;SDS011;47004;51.366;12.348;2023-10-09T02:31:47;4.97;;;3.03;;
18190;SDS011;47004;51.366;12.348;2023-10-09T02:33:52;5.23;;;2.87;;
18190;SDS011;47004;51.366;12.348;2023-10-09T02:35:55;4.87;;;2.80;;
18190;SDS011;47004;51.366;12.348;2023-10-09T02:37:59;5.00;;;3.10;;
18190;SDS011;47004;51.366;12.348;2023-10-09T02:40:04;5.47;;;2.77;;
18190;SDS011;47004;51.366;12.348;2023-10-09T02:42:08;4.93;;;2.77;;
18190;SDS011;47004;51.366;12.348;2023-10-09T02:44:23;6.57;;;2.80;;
18190;SDS011;47004;51.366;12.348;2023-10-09T02:46:27;5.20;;;3.10;;
18190;SDS011;47004;51.366;12.348;2023-10-09T02:48:33;2.83;;;2.37;;
18190;SDS011;47004;51.366;12.348;2023-10-09T02:50:36;3.63;;;2.43;;
18190;SDS011;47004;51.366;12.348;2023-10-09T02:52:44;4.07;;;2.60;;
18190;SDS011;47004;51.366;12.348;2023-10-09T02:54:47;4.20;;;2.43;;
18190;SDS011;47004;51.366;12.348;2023-10-09T02:56:59;3.40;;;2.20;;
18190;SDS011;47004;51.366;12.348;2023-10-09T02:59:07;4.47;;;2.80;;
18190;SDS011;47004;51.366;12.348;2023-10-09T03:01:09;4.13;;;2.63;;
18190;SDS011;47004;51.366;12.348;2023-10-09T03:03:12;4.30;;;2.40;;
18190;SDS011;47004;51.366;12.348;2023-10-09T03:05:19;5.03;;;2.63;;
18190;SDS011;47004;51.366;12.348;2023-10-09T03:07:21;3.90;;;2.57;;
18190;SDS011;47004;51.366;12.348;2023-10-09T03:09:23;5.03;;;3.23;;
18190;SDS011;47004;51.366;12.348;2023-10-09T03:11:27;5.60;;;3.30;;
18190;SDS011;47004;51.366;12.348;2023-10-09T03:13:32;4.60;;;2.90;;
18190;SDS011;47004;51.366;12.348;2023-10-09T03:15:33;5.43;;;3.00;;
18190;SDS011;47004;51.366;12.348;2023-10-09T03:17:35;5.43;;;3.30;;
18190;SDS011;47004;51.366;12.348;2023-10-09T03:19:38;5.90;;;3.00;;
18190;SDS011;47004;51.366;12.348;2023-10-09T03:21:40;6.30;;;3.00;;
18190;SDS011;47004;51.366;12.348;2023-10-09T03:23:43;5.10;;;3.20;;
18190;SDS011;47004;51.366;12.348;2023-10-09T03:25:49;6.43;;;3.10;;
18190;SDS011;47004;51.366;12.348;2023-10-09T03:27:51;5.53;;;3.10;;
18190;SDS011;47004;51.366;12.348;2023-10-09T03:29:58;6.10;;;3.30;;
18190;SDS011;47004;51.366;12.348;2023-10-09T03:32:00;4.80;;;2.90;;
18190;SDS011;47004;51.366;12.348;2023-10-09T03:34:01;4.80;;;3.00;;
18190;SDS011;47004;51.366;12.348;2023-10-09T03:36:04;5.13;;;2.93;;
18190;SDS011;47004;51.366;12.348;2023-10-09T03:38:09;3.97;;;2.70;;
18190;SDS011;47004;51.366;12.348;2023-10-09T03:40:17;4.50;;;2.97;;
18190;SDS011;47004;51.366;12.348;2023-10-09T03:42:20;5.53;;;3.07;;
18190;SDS011;47004;51.366;12.348;2023-10-09T03:44:22;5.67;;;3.30;;
18190;SDS011;47004;51.366;12.348;2023-10-09T03:46:28;5.50;;;3.43;;
18190;SDS011;47004;51.366;12.348;2023-10-09T03:48:33;4.50;;;2.90;;
18190;SDS011;47004;51.366;12.348;2023-10-09T03:50:36;5.40;;;3.00;;
18190;SDS011;47004;51.366;12.348;2023-10-09T03:52:39;6.47;;;3.70;;
18190;SDS011;47004;51.366;12.348;2023-10-09T03:54:40;4.90;;;3.30;;
18190;SDS011;47004;51.366;12.348;2023-10-09T03:56:44;4.67;;;3.23;;
18190;SDS011;47004;51.366;12.348;2023-10-09T03:58:50;5.37;;;3.00;;
18190;SDS011;47004;51.366;12.348;2023-10-09T04:00:53;5.30;;;2.97;;
18190;SDS011;47004;51.366;12.348;2023-10-09T04:02:55;5.87;;;3.00;;
18190;SDS011;47004;51.366;12.348;2023-10-09T04:04:57;4.77;;;3.10;;
18190;SDS011;47004;51.366;12.348;2023-10-09T04:06:59;4.53;;;3.10;;
18190;SDS011;47004;51.366;12.348;2023-10-09T04:09:02;5.17;;;3.57;;
18190;SDS011;47004;51.366;12.348;2023-10-09T04:11:27;3.83;;;2.70;;
18190;SDS011;47004;51.366;12.348;2023-10-09T04:13:31;4.53;;;2.90;;
18190;SDS011;47004;51.366;12.348;2023-10-09T04:15:35;6.60;;;3.63;;
18190;SDS011;47004;51.366;12.348;2023-10-09T04:17:37;5.57;;;3.37;;
18190;SDS011;47004;51.366;12.348;2023-10-09T04:19:43;5.77;;;3.47;;
18190;SDS011;47004;51.366;12.348;2023-10-09T04:21:48;4.93;;;3.20;;
18190;SDS011;47004;51.366;12.348;2023-10-09T04:23:50;5.93;;;3.20;;
18190;SDS011;47004;51.366;12.348;2023-10-09T04:26:10;5.60;;;3.40;;
18190;SDS011;47004;51.366;12.348;2023-10-09T04:28:14;6.67;;;3.40;;
18190;SDS011;47004;51.366;12.348;2023-10-09T04:30:20;4.37;;;2.90;;
18190;SDS011;47004;51.366;12.348;2023-10-09T04:32:23;5.70;;;3.40;;
18190;SDS011;47004;51.366;12.348;2023-10-09T04:34:26;5.50;;;3.40;;
18190;SDS011;47004;51.366;12.348;2023-10-09T04:36:29;4.40;;;2.97;;
18190;SDS011;47004;51.366;12.348;2023-10-09T04:38:48;5.80;;;3.10;;
18190;SDS011;47004;51.366;12.348;2023-10-09T04:41:17;5.13;;;2.97;;
18190;SDS011;47004;51.366;12.348;2023-10-09T04:43:27;4.23;;;3.00;;
18190;SDS011;47004;51.366;12.348;2023-10-09T04:45:29;5.13;;;3.03;;
18190;SDS011;47004;51.366;12.348;2023-10-09T04:47:47;6.57;;;3.90;;
18190;SDS011;47004;51.366;12.348;2023-10-09T04:50:07;5.53;;;2.97;;
18190;SDS011;47004;51.366;12.348;2023-10-09T04:52:11;4.67;;;2.93;;
18190;SDS011;47004;51.366;12.348;2023-10-09T04:54:19;6.50;;;3.50;;
18190;SDS011;47004;51.366;12.348;2023-10-09T04:56:40;7.60;;;3.97;;
18190;SDS011;47004;51.366;12.348;2023-10-09T04:58:52;7.67;;;4.27;;
18190;SDS011;47004;51.366;12.348;2023-10-09T05:01:03;6.00;;;3.53;;
18190;SDS011;47004;51.366;12.348;2023-10-09T05:03:12;7.47;;;3.87;;
18190;SDS011;47004;51.366;12.348;2023-10-09T05:05:26;5.63;;;3.63;;
18190;SDS011;47004;51.366;12.348;2023-10-09T05:07:43;5.53;;;3.40;;
18190;SDS011;47004;51.366;12.348;2023-10-09T05:09:54;5.70;;;3.53;;
18190;SDS011;47004;51.366;12.348;2023-10-09T05:11:57;7.40;;;3.47;;
18190;SDS011;47004;51.366;12.348;2023-10-09T05:14:15;6.23;;;3.53;;
18190;SDS011;47004;51.366;12.348;2023-10-09T05:16:18;6.23;;;4.10;;
18190;SDS011;47004;51.366;12.348;2023-10-09T05:18:25;7.20;;;3.97;;
18190;SDS011;47004;51.366;12.348;2023-10-09T05:20:27;7.00;;;3.87;;
18190;SDS011;47004;51.366;12.348;2023-10-09T05:22:46;6.87;;;3.97;;
18190;SDS011;47004;51.366;12.348;2023-10-09T05:24:58;6.37;;;4.23;;
18190;SDS011;47004;51.366;12.348;2023-10-09T05:27:01;6.27;;;3.93;;
18190;SDS011;47004;51.366;12.348;2023-10-09T05:29:18;6.57;;;4.20;;
18190;SDS011;47004;51.366;12.348;2023-10-09T05:31:19;7.97;;;4.23;;
18190;SDS011;47004;51.366;12.348;2023-10-09T05:33:56;8.27;;;4.13;;
18190;SDS011;47004;51.366;12.348;2023-10-09T05:36:02;9.00;;;4.93;;
18190;SDS011;47004;51.366;12.348;2023-10-09T05:38:17;10.27;;;4.87;;
18190;SDS011;47004;51.366;12.348;2023-10-09T05:40:24;8.23;;;4.17;;
18190;SDS011;47004;51.366;12.348;2023-10-09T05:42:33;7.87;;;4.47;;
18190;SDS011;47004;51.366;12.348;2023-10-09T05:44:42;8.50;;;4.63;;
18190;SDS011;47004;51.366;12.348;2023-10-09T05:47:16;7.40;;;4.77;;
18190;SDS011;47004;51.366;12.348;2023-10-09T05:49:40;9.37;;;4.70;;
18190;SDS011;47004;51.366;12.348;2023-10-09T05:51:55;11.87;;;5.73;;
18190;SDS011;47004;51.366;12.348;2023-10-09T05:54:16;12.30;;;5.43;;
18190;SDS011;47004;51.366;12.348;2023-10-09T05:56:35;12.03;;;6.80;;
18190;SDS011;47004;51.366;12.348;2023-10-09T05:58:56;7.00;;;4.50;;
18190;SDS011;47004;51.366;12.348;2023-10-09T06:01:15;9.57;;;4.93;;
18190;SDS011;47004;51.366;12.348;2023-10-09T06:03:49;12.90;;;4.80;;
18190;SDS011;47004;51.366;12.348;2023-10-09T06:05:55;9.80;;;4.57;;
18190;SDS011;47004;51.366;12.348;2023-10-09T06:08:04;11.27;;;4.67;;
18190;SDS011;47004;51.366;12.348;2023-10-09T06:10:07;10.50;;;4.73;;
18190;SDS011;47004;51.366;12.348;2023-10-09T06:12:19;10.13;;;5.30;;
18190;SDS011;47004;51.366;12.348;2023-10-09T06:14:52;9.37;;;5.60;;
18190;SDS011;47004;51.366;12.348;2023-10-09T06:17:04;13.20;;;7.20;;
18190;SDS011;47004;51.366;12.348;2023-10-09T06:19:23;12.17;;;6.20;;
18190;SDS011;47004;51.366;12.348;2023-10-09T06:21:26;10.10;;;5.60;;
18190;SDS011;47004;51.366;12.348;2023-10-09T06:23:40;8.63;;;5.03;;
18190;SDS011;47004;51.366;12.348;2023-10-09T06:26:00;8.47;;;5.43;;
18190;SDS011;47004;51.366;12.348;2023-10-09T06:28:23;13.63;;;5.67;;
18190;SDS011;47004;51.366;12.348;2023-10-09T06:30:43;11.77;;;5.20;;
18190;SDS011;47004;51.366;12.348;2023-10-09T06:32:47;9.00;;;4.97;;
18190;SDS011;47004;51.366;12.348;2023-10-09T06:34:58;10.17;;;5.00;;
18190;SDS011;47004;51.366;12.348;2023-10-09T06:37:16;12.37;;;5.97;;
18190;SDS011;47004;51.366;12.348;2023-10-09T06:39:34;9.37;;;5.23;;
18190;SDS011;47004;51.366;12.348;2023-10-09T06:41:50;10.43;;;5.60;;
18190;SDS011;47004;51.366;12.348;2023-10-09T06:44:09;11.30;;;6.00;;
18190;SDS011;47004;51.366;12.348;2023-10-09T06:46:41;9.60;;;5.57;;
18190;SDS011;47004;51.366;12.348;2023-10-09T06:48:52;9.77;;;5.73;;
18190;SDS011;47004;51.366;12.348;2023-10-09T06:50:56;8.67;;;5.77;;
18190;SDS011;47004;51.366;12.348;2023-10-09T06:53:08;11.40;;;5.97;;
18190;SDS011;47004;51.366;12.348;2023-10-09T06:55:23;14.37;;;6.57;;
18190;SDS011;47004;51.366;12.348;2023-10-09T06:57:35;14.53;;;7.80;;
18190;SDS011;47004;51.366;12.348;2023-10-09T06:59:48;13.10;;;6.50;;
18190;SDS011;47004;51.366;12.348;2023-10-09T07:02:09;11.70;;;6.00;;
18190;SDS011;47004;51.366;12.348;2023-10-09T07:04:26;14.30;;;6.63;;
18190;SDS011;47004;51.366;12.348;2023-10-09T07:06:45;13.40;;;6.80;;
18190;SDS011;47004;51.366;12.348;2023-10-09T07:08:51;15.63;;;7.50;;
18190;SDS011;47004;51.366;12.348;2023-10-09T07:11:15;15.47;;;7.63;;
18190;SDS011;47004;51.366;12.348;2023-10-09T07:13:43;17.60;;;7.97;;
18190;SDS011;47004;51.366;12.348;2023-10-09T07:15:53;18.77;;;7.83;;
18190;SDS011;47004;51.366;12.348;2023-10-09T07:18:16;20.70;;;8.00;;
18190;SDS011;47004;51.366;12.348;2023-10-09T07:20:23;26.30;;;9.47;;
18190;SDS011;47004;51.366;12.348;2023-10-09T07:22:39;26.43;;;10.03;;
18190;SDS011;47004;51.366;12.348;2023-10-09T07:24:53;24.23;;;9.60;;
18190;SDS011;47004;51.366;12.348;2023-10-09T07:26:57;24.73;;;9.90;;
18190;SDS011;47004;51.366;12.348;2023-10-09T07:29:06;21.17;;;9.50;;
18190;SDS011;47004;51.366;12.348;2023-10-09T07:31:21;21.00;;;10.17;;
18190;SDS011;47004;51.366;12.348;2023-10-09T07:33:29;22.70;;;9.93;;
18190;SDS011;47004;51.366;12.348;2023-10-09T07:35:52;24.70;;;10.10;;
18190;SDS011;47004;51.366;12.348;2023-10-09T07:37:57;22.97;;;10.37;;
18190;SDS011;47004;51.366;12.348;2023-10-09T07:40:03;26.97;;;12.73;;
18190;SDS011;47004;51.366;12.348;2023-10-09T07:42:08;25.00;;;11.17;;
18190;SDS011;47004;51.366;12.348;2023-10-09T07:44:33;23.57;;;11.60;;
18190;SDS011;47004;51.366;12.348;2023-10-09T07:46:36;24.67;;;11.73;;
18190;SDS011;47004;51.366;12.348;2023-10-09T07:48:53;27.27;;;11.83;;
18190;SDS011;47004;51.366;12.348;2023-10-09T07:50:55;26.70;;;11.73;;
18190;SDS011;47004;51.366;12.348;2023-10-09T07:52:58;27.83;;;10.93;;
18190;SDS011;47004;51.366;12.348;2023-10-09T07:55:15;26.20;;;12.13;;
18190;SDS011;47004;51.366;12.348;2023-10-09T07:57:29;26.90;;;11.47;;
18190;SDS011;47004;51.366;12.348;2023-10-09T07:59:39;34.20;;;12.47;;
18190;SDS011;47004;51.366;12.348;2023-10-09T08:01:50;32.13;;;13.17;;
18190;SDS011;47004;51.366;12.348;2023-10-09T08:03:54;33.00;;;12.80;;
18190;SDS011;47004;51.366;12.348;2023-10-09T08:06:05;25.23;;;12.03;;
18190;SDS011;47004;51.366;12.348;2023-10-09T08:08:29;30.80;;;11.57;;
18190;SDS011;47004;51.366;12.348;2023-10-09T08:10:39;27.83;;;12.37;;
18190;SDS011;47004;51.366;12.348;2023-10-09T08:13:01;30.43;;;12.47;;
18190;SDS011;47004;51.366;12.348;2023-10-09T08:15:26;25.97;;;11.27;;
18190;SDS011;47004;51.366;12.348;2023-10-09T08:17:34;33.27;;;13.43;;
18190;SDS011;47004;51.366;12.348;2023-10-09T08:19:38;33.53;;;12.87;;
18190;SDS011;47004;51.366;12.348;2023-10-09T08:21:53;29.63;;;13.13;;
18190;SDS011;47004;51.366;12.348;2023-10-09T08:24:18;28.43;;;11.33;;
18190;SDS011;47004;51.366;12.348;2023-10-09T08:26:33;36.40;;;13.37;;
18190;SDS011;47004;51.366;12.348;2023-10-09T08:28:47;37.70;;;13.37;;
18190;SDS011;47004;51.366;12.348;2023-10-09T08:30:49;36.40;;;14.17;;
18190;SDS011;47004;51.366;12.348;2023-10-09T08:33:03;31.27;;;12.20;;
18190;SDS011;47004;51.366;12.348;2023-10-09T08:35:07;36.17;;;12.47;;
18190;SDS011;47004;51.366;12.348;2023-10-09T08:37:29;35.57;;;13.43;;
18190;SDS011;47004;51.366;12.348;2023-10-09T08:39:30;33.30;;;13.17;;
18190;SDS011;47004;51.366;12.348;2023-10-09T08:41:35;27.13;;;11.67;;
18190;SDS011;47004;51.366;12.348;2023-10-09T08:43:37;35.10;;;12.83;;
18190;SDS011;47004;51.366;12.348;2023-10-09T08:45:44;27.57;;;12.33;;
18190;SDS011;47004;51.366;12.348;2023-10-09T08:47:48;30.33;;;13.00;;
18190;SDS011;47004;51.366;12.348;2023-10-09T08:49:52;31.60;;;12.53;;
18190;SDS011;47004;51.366;12.348;2023-10-09T08:51:56;35.23;;;12.90;;
18190;SDS011;47004;51.366;12.348;2023-10-09T08:54:03;38.83;;;13.60;;
18190;SDS011;47004;51.366;12.348;2023-10-09T08:56:11;40.10;;;14.23;;
18190;SDS011;47004;51.366;12.348;2023-10-09T08:58:19;38.20;;;15.80;;
18190;SDS011;47004;51.366;12.348;2023-10-09T09:00:25;32.17;;;14.07;;
18190;SDS011;47004;51.366;12.348;2023-10-09T09:02:33;38.07;;;14.23;;
18190;SDS011;47004;51.366;12.348;2023-10-09T09:04:36;35.07;;;14.00;;
18190;SDS011;47004;51.366;12.348;2023-10-09T09:06:39;43.90;;;14.73;;
18190;SDS011;47004;51.366;12.348;2023-10-09T09:08:43;31.23;;;14.10;;
18190;SDS011;47004;51.366;12.348;2023-10-09T09:10:46;31.40;;;13.53;;
18190;SDS011;47004;51.366;12.348;2023-10-09T09:12:51;32.77;;;13.47;;
18190;SDS011;47004;51.366;12.348;2023-10-09T09:15:00;33.33;;;14.13;;
18190;SDS011;47004;51.366;12.348;2023-10-09T09:17:03;39.80;;;14.57;;
18190;SDS011;47004;51.366;12.348;2023-10-09T09:19:11;31.53;;;13.43;;
18190;SDS011;47004;51.366;12.348;2023-10-09T09:21:18;36.67;;;14.93;;
18190;SDS011;47004;51.366;12.348;2023-10-09T09:23:22;34.27;;;13.77;;
18190;SDS011;47004;51.366;12.348;2023-10-09T09:25:38;33.63;;;14.30;;
18190;SDS011;47004;51.366;12.348;2023-10-09T09:27:44;33.43;;;13.23;;
18190;SDS011;47004;51.366;12.348;2023-10-09T09:29:52;31.83;;;14.00;;
18190;SDS011;47004;51.366;12.348;2023-10-09T09:31:55;32.30;;;14.10;;
18190;SDS011;47004;51.366;12.348;2023-10-09T09:34:06;34.83;;;14.00;;
18190;SDS011;47004;51.366;12.348;2023-10-09T09:36:19;37.07;;;13.83;;
18190;SDS011;47004;51.366;12.348;2023-10-09T09:38:26;30.83;;;13.20;;
18190;SDS011;47004;51.366;12.348;2023-10-09T09:40:30;31.90;;;13.73;;
18190;SDS011;47004;51.366;12.348;2023-10-09T09:42:34;42.07;;;15.03;;
18190;SDS011;47004;51.366;12.348;2023-10-09T09:44:45;36.60;;;13.57;;
18190;SDS011;47004;51.366;12.348;2023-10-09T09:46:46;36.00;;;14.53;;
18190;SDS011;47004;51.366;12.348;2023-10-09T09:48:49;41.27;;;14.07;;
18190;SDS011;47004;51.366;12.348;2023-10-09T09:50:54;32.63;;;13.77;;
18190;SDS011;47004;51.366;12.348;2023-10-09T09:52:55;39.77;;;14.87;;
18190;SDS011;47004;51.366;12.348;2023-10-09T09:54:57;35.77;;;14.40;;
18190;SDS011;47004;51.366;12.348;2023-10-09T09:57:00;41.87;;;15.27;;
18190;SDS011;47004;51.366;12.348;2023-10-09T09:59:09;36.50;;;14.50;;
18190;SDS011;47004;51.366;12.348;2023-10-09T10:01:22;35.20;;;14.23;;
18190;SDS011;47004;51.366;12.348;2023-10-09T10:03:27;33.53;;;14.07;;
18190;SDS011;47004;51.366;12.348;2023-10-09T10:05:33;38.67;;;14.90;;
18190;SDS011;47004;51.366;12.348;2023-10-09T10:07:36;35.87;;;14.50;;
18190;SDS011;47004;51.366;12.348;2023-10-09T10:09:43;39.67;;;14.30;;
18190;SDS011;47004;51.366;12.348;2023-10-09T10:11:45;32.47;;;13.80;;
18190;SDS011;47004;51.366;12.348;2023-10-09T10:13:56;27.83;;;12.97;;
18190;SDS011;47004;51.366;12.348;2023-10-09T10:16:00;29.37;;;12.40;;
18190;SDS011;47004;51.366;12.348;2023-10-09T10:18:13;34.77;;;13.40;;
18190;SDS011;47004;51.366;12.348;2023-10-09T10:20:19;32.20;;;13.43;;
18190;SDS011;47004;51.366;12.348;2023-10-09T10:22:31;32.30;;;14.20;;
18190;SDS011;47004;51.366;12.348;2023-10-09T10:24:42;28.63;;;12.90;;
18190;SDS011;47004;51.366;12.348;2023-10-09T10:27:16;35.97;;;13.90;;
18190;SDS011;47004;51.366;12.348;2023-10-09T10:29:25;36.13;;;14.27;;
18190;SDS011;47004;51.366;12.348;2023-10-09T10:34:03;34.43;;;13.07;;
18190;SDS011;47004;51.366;12.348;2023-10-09T10:36:10;34.30;;;15.43;;
18190;SDS011;47004;51.366;12.348;2023-10-09T10:38:26;27.87;;;13.30;;
18190;SDS011;47004;51.366;12.348;2023-10-09T10:40:38;35.63;;;13.70;;
18190;SDS011;47004;51.366;12.348;2023-10-09T10:42:46;39.77;;;14.13;;
18190;SDS011;47004;51.366;12.348;2023-10-09T10:45:17;31.77;;;13.10;;
18190;SDS011;47004;51.366;12.348;2023-10-09T10:47:34;26.57;;;12.00;;
18190;SDS011;47004;51.366;12.348;2023-10-09T10:49:36;32.10;;;12.20;;
18190;SDS011;47004;51.366;12.348;2023-10-09T10:51:41;35.70;;;13.20;;
18190;SDS011;47004;51.366;12.348;2023-10-09T10:53:51;32.80;;;13.27;;
18190;SDS011;47004;51.366;12.348;2023-10-09T10:56:15;34.33;;;14.00;;
18190;SDS011;47004;51.366;12.348;2023-10-09T10:58:19;27.47;;;12.03;;
18190;SDS011;47004;51.366;12.348;2023-10-09T11:00:26;34.17;;;13.63;;
18190;SDS011;47004;51.366;12.348;2023-10-09T11:02:46;22.63;;;10.70;;
18190;SDS011;47004;51.366;12.348;2023-10-09T11:04:48;27.57;;;11.83;;
18190;SDS011;47004;51.366;12.348;2023-10-09T11:06:55;24.27;;;11.23;;
18190;SDS011;47004;51.366;12.348;2023-10-09T11:09:07;28.47;;;11.53;;
18190;SDS011;47004;51.366;12.348;2023-10-09T11:11:21;36.03;;;13.40;;
18190;SDS011;47004;51.366;12.348;2023-10-09T11:13:24;23.97;;;11.07;;
18190;SDS011;47004;51.366;12.348;2023-10-09T11:15:37;21.90;;;10.50;;
18190;SDS011;47004;51.366;12.348;2023-10-09T11:17:47;28.90;;;12.53;;
18190;SDS011;47004;51.366;12.348;2023-10-09T11:20:05;24.57;;;10.47;;
18190;SDS011;47004;51.366;12.348;2023-10-09T11:22:22;22.23;;;10.27;;
18190;SDS011;47004;51.366;12.348;2023-10-09T11:24:29;32.37;;;11.67;;
18190;SDS011;47004;51.366;12.348;2023-10-09T11:26:37;25.77;;;11.60;;
18190;SDS011;47004;51.366;12.348;2023-10-09T11:28:41;21.07;;;9.90;;
18190;SDS011;47004;51.366;12.348;2023-10-09T11:30:49;34.57;;;13.20;;
18190;SDS011;47004;51.366;12.348;2023-10-09T11:33:04;30.03;;;12.77;;
18190;SDS011;47004;51.366;12.348;2023-10-09T11:35:11;23.53;;;10.73;;
18190;SDS011;47004;51.366;12.348;2023-10-09T11:37:19;27.53;;;11.97;;
18190;SDS011;47004;51.366;12.348;2023-10-09T11:39:38;24.73;;;10.37;;
18190;SDS011;47004;51.366;12.348;2023-10-09T11:41:50;20.07;;;9.97;;
18190;SDS011;47004;51.366;12.348;2023-10-09T11:44:04;17.50;;;9.83;;
18190;SDS011;47004;51.366;12.348;2023-10-09T11:46:10;20.00;;;10.03;;
18190;SDS011;47004;51.366;12.348;2023-10-09T11:48:18;24.60;;;10.43;;
18190;SDS011;47004;51.366;12.348;2023-10-09T11:50:41;17.37;;;9.00;;
18190;SDS011;47004;51.366;12.348;2023-10-09T11:55:20;17.90;;;9.03;;
18190;SDS011;47004;51.366;12.348;2023-10-09T11:57:22;19.47;;;9.57;;
18190;SDS011;47004;51.366;12.348;2023-10-09T11:59:32;21.10;;;8.73;;
18190;SDS011;47004;51.366;12.348;2023-10-09T12:01:39;19.23;;;9.57;;
18190;SDS011;47004;51.366;12.348;2023-10-09T12:03:43;24.20;;;10.27;;
18190;SDS011;47004;51.366;12.348;2023-10-09T12:05:51;18.00;;;9.67;;
18190;SDS011;47004;51.366;12.348;2023-10-09T12:07:53;21.27;;;9.27;;
18190;SDS011;47004;51.366;12.348;2023-10-09T12:09:57;25.67;;;11.50;;
18190;SDS011;47004;51.366;12.348;2023-10-09T12:11:59;27.67;;;11.70;;
18190;SDS011;47004;51.366;12.348;2023-10-09T12:14:04;33.77;;;14.60;;
18190;SDS011;47004;51.366;12.348;2023-10-09T12:16:06;25.53;;;12.10;;
18190;SDS011;47004;51.366;12.348;2023-10-09T12:18:11;31.97;;;13.17;;
18190;SDS011;47004;51.366;12.348;2023-10-09T12:20:15;23.63;;;12.13;;
18190;SDS011;47004;51.366;12.348;2023-10-09T12:22:30;25.80;;;11.80;;
18190;SDS011;47004;51.366;12.348;2023-10-09T12:24:33;26.93;;;13.40;;
18190;SDS011;47004;51.366;12.348;2023-10-09T12:26:35;25.07;;;12.10;;
18190;SDS011;47004;51.366;12.348;2023-10-09T12:28:39;23.43;;;11.30;;
18190;SDS011;47004;51.366;12.348;2023-10-09T12:30:46;31.20;;;13.70;;
18190;SDS011;47004;51.366;12.348;2023-10-09T12:32:52;31.77;;;13.37;;
18190;SDS011;47004;51.366;12.348;2023-10-09T12:34:55;28.93;;;13.10;;
18190;SDS011;47004;51.366;12.348;2023-10-09T12:36:57;27.03;;;11.90;;
18190;SDS011;47004;51.366;12.348;2023-10-09T12:39:01;32.30;;;13.83;;
18190;SDS011;47004;51.366;12.348;2023-10-09T12:41:06;35.30;;;13.90;;